Bird strike Incident Learjet 45 LV-GOM,
ASN logo
ASN Wikibase Occurrence # 349371
 
This information is added by users of ASN. Neither ASN nor the Flight Safety Foundation are responsible for the completeness or correctness of this information. If you feel this information is incomplete or incorrect, you can submit corrected information.

Date:Saturday 23 December 2023
Time:22:27 UTC
Type:Silhouette image of generic LJ45 model; specific model in this crash may look slightly different    
Learjet 45
Owner/operator:SAPSA - Servicios Aéreos Patagónicos
Registration: LV-GOM
MSN: 45-263
Fatalities:Fatalities: 0 / Occupants: 2
Aircraft damage: Minor, repaired
Category:Incident
Location:San Fernando Airport, BA (SADF) -   Argentina
Phase: Landing
Nature:Passenger - Non-Scheduled/charter/Air Taxi
Departure airport:General Acha Airport, LP (SAEA)
Destination airport:San Fernando Airport, BA (SADF)
Investigating agency: JST
Confidence Rating: Information verified through data from accident investigation authorities
Narrative:
The Learjet 45, LV-GOM, impacted with a bird during landing on runway 09 at San Fernando Airport, BA (SADF).
This resulted in damage to the left wing flap.

METAR:

Weather reported about the incident time:
SADF 232200Z 03005KT 360V060 CAVOK 31/18 Q1008 RMK PP000
SADF 232300Z 06007KT CAVOK 27/19 Q1009 RMK PP000

Accident investigation:
cover
  
Investigating agency: JST
Report number: 
Status: Preliminary report
Duration:
Download report: Preliminary report

Sources:

https://twitter.com/JSTsucesos/status/1739699622535106991
https://www.flightradar24.com/data/aircraft/lv-gom#335af44a

History of this aircraft

Other occurrences involving this aircraft
5 March 2021 LV-GOM Servicios Aéreos Patagónicos (SAPSA) 0 San Fernando Airport, BA (SADF) non
Bird strike

Revision history:

Date/timeContributorUpdates
27-Dec-2023 13:07 harro Added
27-Dec-2023 13:09 harro Updated [Other fatalities, Source, Narrative]
10-May-2024 07:08 ASN Updated [Total occupants, Nature, Departure airport, Damage, Narrative, Accident report]

Corrections or additions? ... Edit this accident description

The Aviation Safety Network is an exclusive service provided by:
Quick Links:

CONNECT WITH US: FSF on social media FSF Facebook FSF Twitter FSF Youtube FSF LinkedIn FSF Instagram

©2024 Flight Safety Foundation

1920 Ballenger Av, 4th Fl.
Alexandria, Virginia 22314
www.FlightSafety.org